Aérodrome :
LOGIN :

S'inscrire | Disclaimer

   EN    FR    IT 

 










Légende :    VFR   VFR Marginal   IFR   IFR Intensif   IFR Très Intensif
Visi : 
Plafond : 
>= 8 km
>= 3000ft
5 à 8 km
1000 à 3000 ft
1500m à 5 km
500 à 1000 ft
800 à 1500m
200 à 500 ft
< 800m
< 200 ft
Symboles :   Orages  Brouillard  Fortes neiges  Fortes précipitations  Vent > 20 kt
SIGMETs :   Divers  Orages  Givrage  Turbulence  Onde Orograph.  Cendres Volcan.






- Altitude de l'aérodrome : 158 ft
- Code IATA : QAR


EHDL - Deelen Airbase

DERNIER METAR :
  • 182155Z AUTO 21017G27KT 160V260 9999 SCT020 OVC023 07/04 Q1013 WHT

METARs EXPIRÉS :
  • 182128Z AUTO 21017KT 170V270 9999 SCT019 OVC025 07/04 Q1014 WHT
  • 182055Z AUTO 21017KT 150V260 9999 -RA SCT015CB SCT022 OVC025 07/04 Q1014 RERA REDZ WHT
  • 182025Z AUTO 20016KT 160V240 9999 DZ BKN023 OVC026 07/04 Q1015 WHT
  • 181955Z AUTO 21016KT 170V260 9999 DZ BKN024 BKN028 OVC033 08/04 Q1015 WHT
  • 181925Z AUTO 22016KT 150V270 9999 SCT033 BKN037 OVC044 08/03 Q1016 BLU

TAF TAF EHDL
Valide du 18 à 18h jusqu'au 19 à 06h UTC


181723Z 1818/1906 24015G25KT 9999 SCT025 BKN040
TEMPO 1818/1821 24018G30KT FEW018CB BKN020
TEMPO 1821/1903 4000 -RA -SHRA FEW012 SCT018CB BKN020
TEMPO 1822/1903 24020G38KT 2500 TSRAGS SCT012 BKN015CB
BECMG 1900/1903 26012KT



MET'MAP, la Météo Aéronautique d'un coup d'oeil ! - Copyright ORBIFLY Décembre 2007 - Disclaimer

ORBIFLY MET'MAP TEAM :

Programmation & Développement : Alexandra Zaïnal
Sur une idée originale de : Baudouin d'Aumeries
Assistance à la programmation : Marc-Olivier Méhu
Soutien technique & logistique : Manuel Goepfert

Contact : metmap@orbifly.com




SOURCES & CREDITS :

   NOAA